KNEL

Lakehurst Maxfield Field Airport

Lakehurst, New Jersey, USA
METAR KNEL 170200Z 25003KT 10SM CLR 08/07 A3009 RMK AO2 SLP188 T00780067 PNO $
Observed Flight Rules
Oct-17 @ 02:00 UTC (an hour ago) Visual Flight Rules
Wind Visibility Clouds
250° at 3 knots 10 miles
  • Clear skies
Temperatures Readings
Current 8°C / 46°F
Dewpoint 7°C / 45°F
Humidity 93%
Altimeter 30.09" Hg
Pressure 1018.8 hPa
Elevation 31
METAR KNEL 170200Z 25003KT 10SM CLR 08/07 A3009 RMK AO2 SLP188 T00780067 PNO $
Observed Flight Rules
Oct-17 @ 02:00 UTC
(an hour ago)
VFR
Wind Visibility
250° at 3 knots 10 miles
Clouds
  • Clear skies
Temperature Dewpoint
8°C / 46°F 7°C / 45°F
Humidity Altimeter Pressure
93% 30.09" Hg 1018.8 hPa